sensor_id;sensor_type;location;lat;lon;timestamp;P1;durP1;ratioP1;P2;durP2;ratioP2
1402;SDS011;696;48.546;9.896;2022-11-30T00:01:34;14.82;;;8.30;;
1402;SDS011;696;48.546;9.896;2022-11-30T00:03:59;13.65;;;8.35;;
1402;SDS011;696;48.546;9.896;2022-11-30T00:06:25;14.20;;;8.90;;
1402;SDS011;696;48.546;9.896;2022-11-30T00:08:56;13.30;;;8.45;;
1402;SDS011;696;48.546;9.896;2022-11-30T00:11:23;15.60;;;8.65;;
1402;SDS011;696;48.546;9.896;2022-11-30T00:13:50;13.23;;;8.30;;
1402;SDS011;696;48.546;9.896;2022-11-30T00:16:16;15.55;;;9.65;;
1402;SDS011;696;48.546;9.896;2022-11-30T00:18:41;18.13;;;9.02;;
1402;SDS011;696;48.546;9.896;2022-11-30T00:21:07;16.88;;;9.48;;
1402;SDS011;696;48.546;9.896;2022-11-30T00:23:35;15.35;;;9.35;;
1402;SDS011;696;48.546;9.896;2022-11-30T00:26:02;16.92;;;10.25;;
1402;SDS011;696;48.546;9.896;2022-11-30T00:28:29;17.25;;;9.48;;
1402;SDS011;696;48.546;9.896;2022-11-30T00:30:58;16.55;;;9.00;;
1402;SDS011;696;48.546;9.896;2022-11-30T00:33:25;14.90;;;9.23;;
1402;SDS011;696;48.546;9.896;2022-11-30T00:35:57;18.77;;;10.57;;
1402;SDS011;696;48.546;9.896;2022-11-30T00:40:49;24.25;;;9.30;;
1402;SDS011;696;48.546;9.896;2022-11-30T00:43:14;17.45;;;10.18;;
1402;SDS011;696;48.546;9.896;2022-11-30T00:45:40;16.90;;;8.82;;
1402;SDS011;696;48.546;9.896;2022-11-30T00:48:05;16.70;;;8.70;;
1402;SDS011;696;48.546;9.896;2022-11-30T00:50:31;18.50;;;10.43;;
1402;SDS011;696;48.546;9.896;2022-11-30T00:52:56;20.40;;;9.63;;
1402;SDS011;696;48.546;9.896;2022-11-30T00:55:21;20.83;;;9.80;;
1402;SDS011;696;48.546;9.896;2022-11-30T00:57:47;17.33;;;9.88;;
1402;SDS011;696;48.546;9.896;2022-11-30T01:00:12;23.80;;;10.80;;
1402;SDS011;696;48.546;9.896;2022-11-30T01:02:38;16.48;;;9.77;;
1402;SDS011;696;48.546;9.896;2022-11-30T01:05:03;16.25;;;9.55;;
1402;SDS011;696;48.546;9.896;2022-11-30T01:07:29;20.25;;;9.90;;
1402;SDS011;696;48.546;9.896;2022-11-30T01:09:54;19.52;;;10.95;;
1402;SDS011;696;48.546;9.896;2022-11-30T01:12:19;18.88;;;11.15;;
1402;SDS011;696;48.546;9.896;2022-11-30T01:14:45;21.58;;;11.27;;
1402;SDS011;696;48.546;9.896;2022-11-30T01:17:10;17.25;;;10.32;;
1402;SDS011;696;48.546;9.896;2022-11-30T01:19:36;22.02;;;11.55;;
1402;SDS011;696;48.546;9.896;2022-11-30T01:22:01;21.15;;;12.07;;
1402;SDS011;696;48.546;9.896;2022-11-30T01:24:26;18.20;;;10.65;;
1402;SDS011;696;48.546;9.896;2022-11-30T01:26:52;19.23;;;10.55;;
1402;SDS011;696;48.546;9.896;2022-11-30T01:29:17;26.00;;;10.25;;
1402;SDS011;696;48.546;9.896;2022-11-30T01:31:42;21.23;;;11.85;;
1402;SDS011;696;48.546;9.896;2022-11-30T01:34:08;21.98;;;12.07;;
1402;SDS011;696;48.546;9.896;2022-11-30T01:36:34;20.27;;;11.52;;
1402;SDS011;696;48.546;9.896;2022-11-30T01:39:00;18.98;;;11.80;;
1402;SDS011;696;48.546;9.896;2022-11-30T01:41:29;25.42;;;12.48;;
1402;SDS011;696;48.546;9.896;2022-11-30T01:43:57;24.08;;;12.82;;
1402;SDS011;696;48.546;9.896;2022-11-30T01:46:43;23.70;;;13.00;;
1402;SDS011;696;48.546;9.896;2022-11-30T01:49:13;21.95;;;12.95;;
1402;SDS011;696;48.546;9.896;2022-11-30T01:52:00;26.83;;;13.70;;
1402;SDS011;696;48.546;9.896;2022-11-30T01:54:35;29.52;;;13.82;;
1402;SDS011;696;48.546;9.896;2022-11-30T01:57:13;30.45;;;14.13;;
1402;SDS011;696;48.546;9.896;2022-11-30T01:59:44;36.53;;;16.15;;
1402;SDS011;696;48.546;9.896;2022-11-30T02:02:09;31.35;;;14.73;;
1402;SDS011;696;48.546;9.896;2022-11-30T02:04:35;36.30;;;16.08;;
1402;SDS011;696;48.546;9.896;2022-11-30T02:07:02;30.75;;;16.27;;
1402;SDS011;696;48.546;9.896;2022-11-30T02:09:28;35.05;;;16.23;;
1402;SDS011;696;48.546;9.896;2022-11-30T02:11:55;36.60;;;17.33;;
1402;SDS011;696;48.546;9.896;2022-11-30T02:31:05;36.83;;;19.27;;
1402;SDS011;696;48.546;9.896;2022-11-30T02:33:32;41.65;;;20.42;;
1402;SDS011;696;48.546;9.896;2022-11-30T02:35:58;47.25;;;19.45;;
1402;SDS011;696;48.546;9.896;2022-11-30T02:38:25;35.13;;;19.77;;
1402;SDS011;696;48.546;9.896;2022-11-30T02:40:51;48.35;;;18.90;;
1402;SDS011;696;48.546;9.896;2022-11-30T02:43:17;43.47;;;20.08;;
1402;SDS011;696;48.546;9.896;2022-11-30T02:48:57;50.50;;;19.67;;
1402;SDS011;696;48.546;9.896;2022-11-30T02:51:29;46.08;;;20.27;;
1402;SDS011;696;48.546;9.896;2022-11-30T02:53:56;42.95;;;21.42;;
1402;SDS011;696;48.546;9.896;2022-11-30T02:56:21;47.13;;;22.02;;
1402;SDS011;696;48.546;9.896;2022-11-30T02:58:47;54.65;;;22.48;;
1402;SDS011;696;48.546;9.896;2022-11-30T03:01:12;42.90;;;21.40;;
1402;SDS011;696;48.546;9.896;2022-11-30T03:03:37;46.53;;;21.67;;
1402;SDS011;696;48.546;9.896;2022-11-30T03:06:03;51.72;;;22.73;;
1402;SDS011;696;48.546;9.896;2022-11-30T03:08:28;49.50;;;23.98;;
1402;SDS011;696;48.546;9.896;2022-11-30T03:10:54;45.00;;;21.42;;
1402;SDS011;696;48.546;9.896;2022-11-30T03:13:19;43.45;;;20.60;;
1402;SDS011;696;48.546;9.896;2022-11-30T03:15:44;39.97;;;21.92;;
1402;SDS011;696;48.546;9.896;2022-11-30T03:18:10;44.78;;;21.52;;
1402;SDS011;696;48.546;9.896;2022-11-30T03:20:39;39.95;;;20.92;;
1402;SDS011;696;48.546;9.896;2022-11-30T03:23:05;41.20;;;20.55;;
1402;SDS011;696;48.546;9.896;2022-11-30T03:25:31;36.58;;;20.25;;
1402;SDS011;696;48.546;9.896;2022-11-30T03:27:56;37.28;;;20.67;;
1402;SDS011;696;48.546;9.896;2022-11-30T03:30:21;41.45;;;19.95;;
1402;SDS011;696;48.546;9.896;2022-11-30T03:32:47;36.75;;;20.52;;
1402;SDS011;696;48.546;9.896;2022-11-30T03:35:12;42.65;;;21.75;;
1402;SDS011;696;48.546;9.896;2022-11-30T03:37:37;45.72;;;21.40;;
1402;SDS011;696;48.546;9.896;2022-11-30T03:40:03;41.47;;;21.42;;
1402;SDS011;696;48.546;9.896;2022-11-30T03:42:29;45.38;;;21.10;;
1402;SDS011;696;48.546;9.896;2022-11-30T03:44:54;48.97;;;21.92;;
1402;SDS011;696;48.546;9.896;2022-11-30T03:47:19;39.95;;;21.42;;
1402;SDS011;696;48.546;9.896;2022-11-30T03:49:45;42.88;;;22.05;;
1402;SDS011;696;48.546;9.896;2022-11-30T03:52:10;47.58;;;22.08;;
1402;SDS011;696;48.546;9.896;2022-11-30T03:54:35;40.75;;;20.95;;
1402;SDS011;696;48.546;9.896;2022-11-30T03:57:01;38.00;;;20.90;;
1402;SDS011;696;48.546;9.896;2022-11-30T03:59:26;37.72;;;20.67;;
1402;SDS011;696;48.546;9.896;2022-11-30T04:01:51;44.28;;;21.50;;
1402;SDS011;696;48.546;9.896;2022-11-30T04:04:17;44.28;;;20.50;;
1402;SDS011;696;48.546;9.896;2022-11-30T04:06:42;51.90;;;22.38;;
1402;SDS011;696;48.546;9.896;2022-11-30T04:09:08;47.55;;;22.75;;
1402;SDS011;696;48.546;9.896;2022-11-30T04:11:33;43.70;;;22.00;;
1402;SDS011;696;48.546;9.896;2022-11-30T04:13:59;43.40;;;21.92;;
1402;SDS011;696;48.546;9.896;2022-11-30T04:16:25;41.67;;;21.67;;
1402;SDS011;696;48.546;9.896;2022-11-30T04:18:50;38.30;;;21.25;;
1402;SDS011;696;48.546;9.896;2022-11-30T04:21:16;53.08;;;23.65;;
1402;SDS011;696;48.546;9.896;2022-11-30T04:23:42;38.22;;;22.10;;
1402;SDS011;696;48.546;9.896;2022-11-30T04:26:10;44.40;;;21.85;;
1402;SDS011;696;48.546;9.896;2022-11-30T04:28:36;42.78;;;21.77;;
1402;SDS011;696;48.546;9.896;2022-11-30T04:31:01;48.95;;;22.10;;
1402;SDS011;696;48.546;9.896;2022-11-30T04:33:27;36.97;;;22.17;;
1402;SDS011;696;48.546;9.896;2022-11-30T04:35:56;41.55;;;21.90;;
1402;SDS011;696;48.546;9.896;2022-11-30T04:38:23;46.40;;;21.30;;
1402;SDS011;696;48.546;9.896;2022-11-30T04:40:49;43.20;;;22.30;;
1402;SDS011;696;48.546;9.896;2022-11-30T04:43:15;38.50;;;21.15;;
1402;SDS011;696;48.546;9.896;2022-11-30T04:45:41;48.03;;;23.25;;
1402;SDS011;696;48.546;9.896;2022-11-30T04:48:07;48.65;;;22.20;;
1402;SDS011;696;48.546;9.896;2022-11-30T04:50:33;39.90;;;21.20;;
1402;SDS011;696;48.546;9.896;2022-11-30T04:52:58;53.65;;;23.75;;
1402;SDS011;696;48.546;9.896;2022-11-30T04:55:24;48.97;;;23.75;;
1402;SDS011;696;48.546;9.896;2022-11-30T04:57:49;49.15;;;22.67;;
1402;SDS011;696;48.546;9.896;2022-11-30T05:00:15;52.63;;;22.98;;
1402;SDS011;696;48.546;9.896;2022-11-30T05:02:41;44.35;;;21.88;;
1402;SDS011;696;48.546;9.896;2022-11-30T05:05:07;45.13;;;22.42;;
1402;SDS011;696;48.546;9.896;2022-11-30T05:07:33;49.58;;;23.38;;
1402;SDS011;696;48.546;9.896;2022-11-30T05:09:58;41.95;;;22.00;;
1402;SDS011;696;48.546;9.896;2022-11-30T05:12:23;46.00;;;22.45;;
1402;SDS011;696;48.546;9.896;2022-11-30T05:14:49;55.70;;;22.77;;
1402;SDS011;696;48.546;9.896;2022-11-30T05:17:14;49.17;;;23.35;;
1402;SDS011;696;48.546;9.896;2022-11-30T05:19:39;47.47;;;21.58;;
1402;SDS011;696;48.546;9.896;2022-11-30T05:22:05;51.03;;;22.77;;
1402;SDS011;696;48.546;9.896;2022-11-30T05:24:30;48.63;;;21.45;;
1402;SDS011;696;48.546;9.896;2022-11-30T05:26:55;47.72;;;23.23;;
1402;SDS011;696;48.546;9.896;2022-11-30T05:29:21;47.53;;;22.15;;
1402;SDS011;696;48.546;9.896;2022-11-30T05:31:46;39.35;;;22.15;;
1402;SDS011;696;48.546;9.896;2022-11-30T05:34:12;41.97;;;21.10;;
1402;SDS011;696;48.546;9.896;2022-11-30T05:36:37;40.60;;;21.42;;
1402;SDS011;696;48.546;9.896;2022-11-30T05:39:02;47.45;;;21.77;;
1402;SDS011;696;48.546;9.896;2022-11-30T05:41:28;39.40;;;21.98;;
1402;SDS011;696;48.546;9.896;2022-11-30T05:43:53;37.60;;;21.30;;
1402;SDS011;696;48.546;9.896;2022-11-30T05:46:19;41.60;;;20.70;;
1402;SDS011;696;48.546;9.896;2022-11-30T05:48:44;47.50;;;21.52;;
1402;SDS011;696;48.546;9.896;2022-11-30T05:51:10;54.13;;;21.33;;
1402;SDS011;696;48.546;9.896;2022-11-30T05:53:39;45.50;;;23.90;;
1402;SDS011;696;48.546;9.896;2022-11-30T05:56:06;50.97;;;23.38;;
1402;SDS011;696;48.546;9.896;2022-11-30T05:58:36;45.33;;;21.63;;
1402;SDS011;696;48.546;9.896;2022-11-30T06:01:02;38.53;;;21.65;;
1402;SDS011;696;48.546;9.896;2022-11-30T06:03:29;46.67;;;23.88;;
1402;SDS011;696;48.546;9.896;2022-11-30T06:05:55;41.83;;;22.60;;
1402;SDS011;696;48.546;9.896;2022-11-30T06:08:21;45.28;;;22.65;;
1402;SDS011;696;48.546;9.896;2022-11-30T06:10:46;56.15;;;23.60;;
1402;SDS011;696;48.546;9.896;2022-11-30T06:13:12;43.15;;;23.63;;
1402;SDS011;696;48.546;9.896;2022-11-30T06:15:37;53.85;;;24.92;;
1402;SDS011;696;48.546;9.896;2022-11-30T06:18:04;48.08;;;21.80;;
1402;SDS011;696;48.546;9.896;2022-11-30T06:20:29;43.67;;;21.55;;
1402;SDS011;696;48.546;9.896;2022-11-30T06:22:55;45.92;;;22.75;;
1402;SDS011;696;48.546;9.896;2022-11-30T06:25:21;44.92;;;21.63;;
1402;SDS011;696;48.546;9.896;2022-11-30T06:27:47;43.33;;;21.25;;
1402;SDS011;696;48.546;9.896;2022-11-30T06:30:12;46.80;;;19.63;;
1402;SDS011;696;48.546;9.896;2022-11-30T06:32:38;42.70;;;21.75;;
1402;SDS011;696;48.546;9.896;2022-11-30T06:35:03;44.78;;;21.58;;
1402;SDS011;696;48.546;9.896;2022-11-30T06:37:32;39.70;;;20.70;;
1402;SDS011;696;48.546;9.896;2022-11-30T06:39:58;44.42;;;20.77;;
1402;SDS011;696;48.546;9.896;2022-11-30T06:42:23;38.10;;;18.77;;
1402;SDS011;696;48.546;9.896;2022-11-30T06:44:49;49.80;;;21.85;;
1402;SDS011;696;48.546;9.896;2022-11-30T06:47:14;37.42;;;20.88;;
1402;SDS011;696;48.546;9.896;2022-11-30T06:49:39;41.15;;;21.05;;
1402;SDS011;696;48.546;9.896;2022-11-30T06:52:05;43.90;;;20.90;;
1402;SDS011;696;48.546;9.896;2022-11-30T06:54:30;45.08;;;20.15;;
1402;SDS011;696;48.546;9.896;2022-11-30T06:56:56;51.35;;;20.85;;
1402;SDS011;696;48.546;9.896;2022-11-30T06:59:22;48.35;;;23.73;;
1402;SDS011;696;48.546;9.896;2022-11-30T07:01:47;40.92;;;21.70;;
1402;SDS011;696;48.546;9.896;2022-11-30T07:04:13;40.85;;;21.98;;
1402;SDS011;696;48.546;9.896;2022-11-30T07:06:38;45.67;;;21.73;;
1402;SDS011;696;48.546;9.896;2022-11-30T07:09:04;37.28;;;21.00;;
1402;SDS011;696;48.546;9.896;2022-11-30T07:11:30;45.72;;;21.80;;
1402;SDS011;696;48.546;9.896;2022-11-30T07:13:56;42.70;;;20.60;;
1402;SDS011;696;48.546;9.896;2022-11-30T07:16:21;39.58;;;18.80;;
1402;SDS011;696;48.546;9.896;2022-11-30T07:18:47;41.38;;;18.52;;
1402;SDS011;696;48.546;9.896;2022-11-30T07:21:12;27.08;;;16.40;;
1402;SDS011;696;48.546;9.896;2022-11-30T07:23:37;37.85;;;19.23;;
1402;SDS011;696;48.546;9.896;2022-11-30T07:26:22;37.22;;;18.23;;
1402;SDS011;696;48.546;9.896;2022-11-30T07:28:48;31.20;;;17.90;;
1402;SDS011;696;48.546;9.896;2022-11-30T07:31:19;37.75;;;19.42;;
1402;SDS011;696;48.546;9.896;2022-11-30T07:33:55;34.58;;;18.33;;
1402;SDS011;696;48.546;9.896;2022-11-30T07:36:22;40.45;;;18.85;;
1402;SDS011;696;48.546;9.896;2022-11-30T07:38:49;44.47;;;19.88;;
1402;SDS011;696;48.546;9.896;2022-11-30T07:41:15;38.85;;;18.92;;
1402;SDS011;696;48.546;9.896;2022-11-30T07:43:40;38.25;;;19.80;;
1402;SDS011;696;48.546;9.896;2022-11-30T07:46:06;34.83;;;18.02;;
1402;SDS011;696;48.546;9.896;2022-11-30T07:48:31;35.92;;;18.00;;
1402;SDS011;696;48.546;9.896;2022-11-30T07:51:04;38.78;;;18.58;;
1402;SDS011;696;48.546;9.896;2022-11-30T07:53:31;33.80;;;18.60;;
1402;SDS011;696;48.546;9.896;2022-11-30T07:56:01;41.58;;;19.70;;
1402;SDS011;696;48.546;9.896;2022-11-30T07:58:27;41.03;;;19.92;;
1402;SDS011;696;48.546;9.896;2022-11-30T08:00:53;47.40;;;19.90;;
1402;SDS011;696;48.546;9.896;2022-11-30T08:03:19;37.00;;;19.33;;
1402;SDS011;696;48.546;9.896;2022-11-30T08:05:44;32.42;;;18.60;;
1402;SDS011;696;48.546;9.896;2022-11-30T08:08:09;30.02;;;17.77;;
1402;SDS011;696;48.546;9.896;2022-11-30T08:10:35;34.70;;;18.08;;
1402;SDS011;696;48.546;9.896;2022-11-30T08:13:00;39.28;;;19.15;;
1402;SDS011;696;48.546;9.896;2022-11-30T08:15:25;38.80;;;17.63;;
1402;SDS011;696;48.546;9.896;2022-11-30T08:17:51;41.25;;;20.58;;
1402;SDS011;696;48.546;9.896;2022-11-30T08:20:19;38.08;;;18.75;;
1402;SDS011;696;48.546;9.896;2022-11-30T08:22:45;37.40;;;18.75;;
1402;SDS011;696;48.546;9.896;2022-11-30T08:25:10;52.25;;;19.92;;
1402;SDS011;696;48.546;9.896;2022-11-30T08:27:35;36.05;;;18.52;;
1402;SDS011;696;48.546;9.896;2022-11-30T08:30:01;33.33;;;18.98;;
1402;SDS011;696;48.546;9.896;2022-11-30T08:32:26;38.50;;;21.08;;
1402;SDS011;696;48.546;9.896;2022-11-30T08:34:52;48.90;;;21.73;;
1402;SDS011;696;48.546;9.896;2022-11-30T08:37:17;50.60;;;19.67;;
1402;SDS011;696;48.546;9.896;2022-11-30T08:39:42;69.10;;;32.80;;
1402;SDS011;696;48.546;9.896;2022-11-30T08:42:08;64.97;;;30.50;;
1402;SDS011;696;48.546;9.896;2022-11-30T08:44:33;51.35;;;25.13;;
1402;SDS011;696;48.546;9.896;2022-11-30T08:46:58;43.67;;;21.98;;
1402;SDS011;696;48.546;9.896;2022-11-30T08:49:24;41.42;;;20.75;;
1402;SDS011;696;48.546;9.896;2022-11-30T08:51:50;39.53;;;19.92;;
1402;SDS011;696;48.546;9.896;2022-11-30T08:54:16;37.10;;;17.70;;
1402;SDS011;696;48.546;9.896;2022-11-30T08:56:41;33.50;;;18.02;;
1402;SDS011;696;48.546;9.896;2022-11-30T08:59:07;40.22;;;17.27;;
1402;SDS011;696;48.546;9.896;2022-11-30T09:01:32;34.50;;;17.88;;
1402;SDS011;696;48.546;9.896;2022-11-30T09:03:57;34.63;;;16.63;;
1402;SDS011;696;48.546;9.896;2022-11-30T09:08:50;35.58;;;16.75;;
1402;SDS011;696;48.546;9.896;2022-11-30T09:11:18;30.50;;;15.25;;
1402;SDS011;696;48.546;9.896;2022-11-30T09:13:45;31.80;;;15.77;;
1402;SDS011;696;48.546;9.896;2022-11-30T09:16:11;31.90;;;15.68;;
1402;SDS011;696;48.546;9.896;2022-11-30T09:18:37;39.22;;;16.40;;
1402;SDS011;696;48.546;9.896;2022-11-30T09:21:04;27.98;;;16.15;;
1402;SDS011;696;48.546;9.896;2022-11-30T09:23:33;31.55;;;15.88;;
1402;SDS011;696;48.546;9.896;2022-11-30T09:26:01;33.38;;;16.63;;
1402;SDS011;696;48.546;9.896;2022-11-30T09:28:30;40.13;;;16.75;;
1402;SDS011;696;48.546;9.896;2022-11-30T09:31:02;32.13;;;16.17;;
1402;SDS011;696;48.546;9.896;2022-11-30T09:33:33;31.48;;;15.07;;
1402;SDS011;696;48.546;9.896;2022-11-30T09:35:59;31.30;;;16.27;;
1402;SDS011;696;48.546;9.896;2022-11-30T09:38:26;32.33;;;16.17;;
1402;SDS011;696;48.546;9.896;2022-11-30T09:40:56;29.55;;;14.55;;
1402;SDS011;696;48.546;9.896;2022-11-30T09:51:24;21.33;;;12.30;;
1402;SDS011;696;48.546;9.896;2022-11-30T09:54:02;26.88;;;12.90;;
1402;SDS011;696;48.546;9.896;2022-11-30T09:56:33;23.60;;;12.48;;
1402;SDS011;696;48.546;9.896;2022-11-30T09:59:02;27.38;;;13.40;;
1402;SDS011;696;48.546;9.896;2022-11-30T10:01:31;21.67;;;13.27;;
1402;SDS011;696;48.546;9.896;2022-11-30T10:03:58;20.40;;;11.77;;
1402;SDS011;696;48.546;9.896;2022-11-30T10:06:28;20.42;;;11.57;;
1402;SDS011;696;48.546;9.896;2022-11-30T10:09:02;22.00;;;12.63;;
1402;SDS011;696;48.546;9.896;2022-11-30T10:11:45;26.35;;;11.75;;
1402;SDS011;696;48.546;9.896;2022-11-30T10:22:17;21.23;;;11.18;;
1402;SDS011;696;48.546;9.896;2022-11-30T10:24:57;25.10;;;11.63;;
1402;SDS011;696;48.546;9.896;2022-11-30T10:30:24;19.58;;;10.20;;
1402;SDS011;696;48.546;9.896;2022-11-30T10:32:51;21.38;;;10.38;;
1402;SDS011;696;48.546;9.896;2022-11-30T10:38:02;18.98;;;9.30;;
1402;SDS011;696;48.546;9.896;2022-11-30T10:40:36;17.45;;;8.88;;
1402;SDS011;696;48.546;9.896;2022-11-30T10:43:07;19.58;;;9.20;;
1402;SDS011;696;48.546;9.896;2022-11-30T10:45:48;17.20;;;8.48;;
1402;SDS011;696;48.546;9.896;2022-11-30T10:48:17;19.65;;;9.70;;
1402;SDS011;696;48.546;9.896;2022-11-30T10:50:46;15.38;;;9.18;;
1402;SDS011;696;48.546;9.896;2022-11-30T10:53:12;18.50;;;9.43;;
1402;SDS011;696;48.546;9.896;2022-11-30T10:55:39;17.48;;;9.93;;
1402;SDS011;696;48.546;9.896;2022-11-30T10:58:18;17.08;;;10.07;;
1402;SDS011;696;48.546;9.896;2022-11-30T11:00:49;18.20;;;9.27;;
1402;SDS011;696;48.546;9.896;2022-11-30T11:03:21;21.13;;;9.48;;
1402;SDS011;696;48.546;9.896;2022-11-30T11:05:48;17.13;;;9.77;;
1402;SDS011;696;48.546;9.896;2022-11-30T11:08:27;15.77;;;8.32;;
1402;SDS011;696;48.546;9.896;2022-11-30T11:10:52;16.65;;;8.73;;
1402;SDS011;696;48.546;9.896;2022-11-30T11:13:19;20.88;;;10.43;;
1402;SDS011;696;48.546;9.896;2022-11-30T11:16:00;21.23;;;9.85;;
1402;SDS011;696;48.546;9.896;2022-11-30T11:18:28;23.23;;;10.02;;
1402;SDS011;696;48.546;9.896;2022-11-30T11:21:16;19.05;;;10.57;;
1402;SDS011;696;48.546;9.896;2022-11-30T11:23:43;17.42;;;10.57;;
1402;SDS011;696;48.546;9.896;2022-11-30T11:28:43;21.50;;;9.68;;
1402;SDS011;696;48.546;9.896;2022-11-30T11:31:14;16.75;;;9.90;;
1402;SDS011;696;48.546;9.896;2022-11-30T11:33:52;18.13;;;9.38;;
1402;SDS011;696;48.546;9.896;2022-11-30T11:36:28;14.73;;;9.02;;
1402;SDS011;696;48.546;9.896;2022-11-30T11:38:55;12.80;;;8.45;;
1402;SDS011;696;48.546;9.896;2022-11-30T11:46:35;17.08;;;8.68;;
1402;SDS011;696;48.546;9.896;2022-11-30T11:51:47;15.52;;;8.73;;
1402;SDS011;696;48.546;9.896;2022-11-30T11:57:15;17.75;;;8.65;;
1402;SDS011;696;48.546;9.896;2022-11-30T11:59:56;13.68;;;8.48;;
1402;SDS011;696;48.546;9.896;2022-11-30T12:13:07;16.25;;;8.10;;
1402;SDS011;696;48.546;9.896;2022-11-30T12:15:56;14.60;;;7.78;;
1402;SDS011;696;48.546;9.896;2022-11-30T12:18:56;10.57;;;6.85;;
1402;SDS011;696;48.546;9.896;2022-11-30T12:22:07;14.30;;;7.72;;
1402;SDS011;696;48.546;9.896;2022-11-30T12:30:11;13.65;;;7.30;;
1402;SDS011;696;48.546;9.896;2022-11-30T12:39:08;9.73;;;6.55;;
1402;SDS011;696;48.546;9.896;2022-11-30T12:41:53;11.18;;;6.80;;
1402;SDS011;696;48.546;9.896;2022-11-30T12:47:43;10.85;;;7.38;;
1402;SDS011;696;48.546;9.896;2022-11-30T12:49:56;12.27;;;7.15;;
1402;SDS011;696;48.546;9.896;2022-11-30T13:01:03;12.80;;;7.18;;
1402;SDS011;696;48.546;9.896;2022-11-30T13:03:47;11.25;;;6.53;;
1402;SDS011;696;48.546;9.896;2022-11-30T13:06:20;11.60;;;6.13;;
1402;SDS011;696;48.546;9.896;2022-11-30T13:11:28;14.05;;;8.35;;
1402;SDS011;696;48.546;9.896;2022-11-30T13:13:58;19.20;;;7.97;;
1402;SDS011;696;48.546;9.896;2022-11-30T13:16:24;12.43;;;7.53;;
1402;SDS011;696;48.546;9.896;2022-11-30T13:18:50;11.40;;;6.82;;
1402;SDS011;696;48.546;9.896;2022-11-30T13:21:20;8.85;;;5.78;;
1402;SDS011;696;48.546;9.896;2022-11-30T13:24:22;13.13;;;6.93;;
1402;SDS011;696;48.546;9.896;2022-11-30T13:27:00;16.40;;;8.07;;
1402;SDS011;696;48.546;9.896;2022-11-30T13:29:43;14.63;;;8.50;;
1402;SDS011;696;48.546;9.896;2022-11-30T13:32:23;15.32;;;8.27;;
1402;SDS011;696;48.546;9.896;2022-11-30T13:34:48;10.55;;;6.07;;
1402;SDS011;696;48.546;9.896;2022-11-30T13:37:18;9.85;;;5.93;;
1402;SDS011;696;48.546;9.896;2022-11-30T13:42:30;12.43;;;6.90;;
1402;SDS011;696;48.546;9.896;2022-11-30T13:45:14;12.02;;;7.40;;
1402;SDS011;696;48.546;9.896;2022-11-30T13:47:43;13.70;;;6.50;;
1402;SDS011;696;48.546;9.896;2022-11-30T13:53:22;11.05;;;6.47;;
1402;SDS011;696;48.546;9.896;2022-11-30T13:56:05;13.63;;;8.07;;
1402;SDS011;696;48.546;9.896;2022-11-30T13:58:32;13.25;;;7.95;;
1402;SDS011;696;48.546;9.896;2022-11-30T14:01:19;12.65;;;7.43;;
1402;SDS011;696;48.546;9.896;2022-11-30T14:14:56;13.77;;;6.95;;
1402;SDS011;696;48.546;9.896;2022-11-30T14:17:23;9.68;;;6.80;;
1402;SDS011;696;48.546;9.896;2022-11-30T14:19:52;12.30;;;6.85;;
1402;SDS011;696;48.546;9.896;2022-11-30T14:22:22;9.52;;;6.85;;
1402;SDS011;696;48.546;9.896;2022-11-30T14:24:49;12.88;;;8.05;;
1402;SDS011;696;48.546;9.896;2022-11-30T14:27:17;17.02;;;8.07;;
1402;SDS011;696;48.546;9.896;2022-11-30T14:29:46;18.80;;;8.93;;
1402;SDS011;696;48.546;9.896;2022-11-30T14:32:33;15.88;;;9.20;;
1402;SDS011;696;48.546;9.896;2022-11-30T14:35:23;16.35;;;9.00;;
1402;SDS011;696;48.546;9.896;2022-11-30T14:37:57;15.95;;;9.23;;
1402;SDS011;696;48.546;9.896;2022-11-30T14:40:24;15.25;;;9.45;;
1402;SDS011;696;48.546;9.896;2022-11-30T14:42:52;16.55;;;10.27;;
1402;SDS011;696;48.546;9.896;2022-11-30T14:45:21;32.22;;;17.05;;
1402;SDS011;696;48.546;9.896;2022-11-30T14:47:49;41.03;;;26.90;;
1402;SDS011;696;48.546;9.896;2022-11-30T14:50:21;25.33;;;17.40;;
1402;SDS011;696;48.546;9.896;2022-11-30T15:01:12;26.48;;;12.57;;
1402;SDS011;696;48.546;9.896;2022-11-30T15:03:45;24.23;;;12.10;;
1402;SDS011;696;48.546;9.896;2022-11-30T15:06:12;26.73;;;14.15;;
1402;SDS011;696;48.546;9.896;2022-11-30T15:08:42;29.98;;;15.07;;
1402;SDS011;696;48.546;9.896;2022-11-30T15:11:14;26.20;;;13.23;;
1402;SDS011;696;48.546;9.896;2022-11-30T15:14:26;25.17;;;13.35;;
1402;SDS011;696;48.546;9.896;2022-11-30T15:16:33;20.42;;;11.02;;
1402;SDS011;696;48.546;9.896;2022-11-30T15:18:58;20.45;;;11.15;;
1402;SDS011;696;48.546;9.896;2022-11-30T15:21:26;28.40;;;12.30;;
1402;SDS011;696;48.546;9.896;2022-11-30T15:23:53;23.77;;;12.98;;
1402;SDS011;696;48.546;9.896;2022-11-30T15:26:29;31.10;;;15.07;;
1402;SDS011;696;48.546;9.896;2022-11-30T15:31:38;36.00;;;18.40;;
1402;SDS011;696;48.546;9.896;2022-11-30T15:34:05;41.90;;;17.23;;
1402;SDS011;696;48.546;9.896;2022-11-30T15:36:34;30.45;;;13.55;;
1402;SDS011;696;48.546;9.896;2022-11-30T15:39:03;19.13;;;11.48;;
1402;SDS011;696;48.546;9.896;2022-11-30T15:41:30;24.75;;;12.98;;
1402;SDS011;696;48.546;9.896;2022-11-30T15:43:56;23.45;;;12.25;;
1402;SDS011;696;48.546;9.896;2022-11-30T15:46:29;28.17;;;12.45;;
1402;SDS011;696;48.546;9.896;2022-11-30T15:49:18;22.30;;;12.93;;
1402;SDS011;696;48.546;9.896;2022-11-30T15:51:57;33.22;;;13.90;;
1402;SDS011;696;48.546;9.896;2022-11-30T15:57:11;23.13;;;12.05;;
1402;SDS011;696;48.546;9.896;2022-11-30T15:59:37;29.33;;;13.25;;
1402;SDS011;696;48.546;9.896;2022-11-30T16:02:03;25.10;;;12.77;;
1402;SDS011;696;48.546;9.896;2022-11-30T16:07:24;20.65;;;11.15;;
1402;SDS011;696;48.546;9.896;2022-11-30T16:10:00;24.50;;;12.05;;
1402;SDS011;696;48.546;9.896;2022-11-30T16:12:30;19.38;;;10.85;;
1402;SDS011;696;48.546;9.896;2022-11-30T16:14:55;25.42;;;10.38;;
1402;SDS011;696;48.546;9.896;2022-11-30T16:17:21;25.15;;;11.88;;
1402;SDS011;696;48.546;9.896;2022-11-30T16:19:46;26.45;;;13.52;;
1402;SDS011;696;48.546;9.896;2022-11-30T16:22:12;25.30;;;13.27;;
1402;SDS011;696;48.546;9.896;2022-11-30T16:24:40;30.98;;;12.88;;
1402;SDS011;696;48.546;9.896;2022-11-30T16:27:23;25.98;;;13.00;;
1402;SDS011;696;48.546;9.896;2022-11-30T16:29:50;26.02;;;13.02;;
1402;SDS011;696;48.546;9.896;2022-11-30T16:32:15;28.08;;;12.27;;
1402;SDS011;696;48.546;9.896;2022-11-30T16:34:41;24.15;;;11.95;;
1402;SDS011;696;48.546;9.896;2022-11-30T16:37:09;23.05;;;12.85;;
1402;SDS011;696;48.546;9.896;2022-11-30T16:39:35;26.50;;;12.57;;
1402;SDS011;696;48.546;9.896;2022-11-30T16:42:00;27.50;;;12.57;;
1402;SDS011;696;48.546;9.896;2022-11-30T16:44:26;26.63;;;11.55;;
1402;SDS011;696;48.546;9.896;2022-11-30T16:46:52;21.88;;;10.77;;
1402;SDS011;696;48.546;9.896;2022-11-30T16:49:18;20.25;;;10.38;;
1402;SDS011;696;48.546;9.896;2022-11-30T16:51:44;17.75;;;9.82;;
1402;SDS011;696;48.546;9.896;2022-11-30T16:54:13;18.88;;;9.52;;
1402;SDS011;696;48.546;9.896;2022-11-30T16:56:41;16.48;;;9.13;;
1402;SDS011;696;48.546;9.896;2022-11-30T16:59:06;23.95;;;11.02;;
1402;SDS011;696;48.546;9.896;2022-11-30T17:01:35;19.63;;;9.48;;
1402;SDS011;696;48.546;9.896;2022-11-30T17:04:25;18.48;;;8.90;;
1402;SDS011;696;48.546;9.896;2022-11-30T17:06:50;18.27;;;9.95;;
1402;SDS011;696;48.546;9.896;2022-11-30T17:09:16;23.52;;;11.38;;
1402;SDS011;696;48.546;9.896;2022-11-30T17:11:42;15.98;;;9.68;;
1402;SDS011;696;48.546;9.896;2022-11-30T17:14:11;21.90;;;10.52;;
1402;SDS011;696;48.546;9.896;2022-11-30T17:16:37;20.52;;;11.43;;
1402;SDS011;696;48.546;9.896;2022-11-30T17:19:02;24.30;;;10.93;;
1402;SDS011;696;48.546;9.896;2022-11-30T17:21:29;20.02;;;10.45;;
1402;SDS011;696;48.546;9.896;2022-11-30T17:23:55;18.25;;;9.57;;